createdAt,value
2022-07-28T00:00:08.293Z,10.30
2022-07-28T00:01:37.867Z,14.90
2022-07-28T00:02:47.410Z,11.30
2022-07-28T00:03:57.330Z,12.20
2022-07-28T00:05:07.368Z,10.60
2022-07-28T00:06:16.021Z,10.50
2022-07-28T00:07:25.298Z,12.10
2022-07-28T00:08:33.611Z,14.50
2022-07-28T00:09:45.232Z,12.30
2022-07-28T00:10:54.951Z,16.80
2022-07-28T00:12:03.928Z,12.90
2022-07-28T00:13:12.137Z,14.80
2022-07-28T00:14:20.599Z,11.00
2022-07-28T00:15:31.201Z,9.60
2022-07-28T00:16:40.726Z,11.60
2022-07-28T00:17:48.535Z,9.80
2022-07-28T00:18:58.405Z,13.70
2022-07-28T00:20:07.251Z,11.20
2022-07-28T00:21:17.891Z,10.90
2022-07-28T00:22:25.905Z,9.00
2022-07-28T00:23:39.456Z,9.10
2022-07-28T00:24:50.710Z,10.20
2022-07-28T00:26:02.375Z,10.20
2022-07-28T00:27:13.173Z,14.40
2022-07-28T00:28:22.222Z,9.30
2022-07-28T00:29:49.950Z,9.20
2022-07-28T00:31:06.039Z,9.70
2022-07-28T00:32:20.263Z,12.50
2022-07-28T00:33:31.225Z,11.90
2022-07-28T00:34:39.642Z,12.80
2022-07-28T00:35:52.508Z,12.70
2022-07-28T00:37:01.296Z,11.10
2022-07-28T00:38:15.627Z,8.40
2022-07-28T00:39:25.271Z,9.30
2022-07-28T00:40:52.758Z,9.40
2022-07-28T00:42:02.000Z,14.60
2022-07-28T00:43:12.785Z,10.70
2022-07-28T00:44:21.172Z,10.70
2022-07-28T00:45:29.921Z,9.10
2022-07-28T00:46:40.864Z,8.20
2022-07-28T00:47:49.523Z,8.10
2022-07-28T00:48:58.649Z,11.00
2022-07-28T00:50:07.461Z,10.70
2022-07-28T00:51:18.355Z,9.50
2022-07-28T00:52:26.723Z,12.10
2022-07-28T00:53:35.720Z,10.10
2022-07-28T00:54:45.491Z,10.10
2022-07-28T00:56:03.592Z,13.80
2022-07-28T00:57:16.098Z,11.90
2022-07-28T00:58:24.828Z,9.60
2022-07-28T00:59:36.019Z,11.60
2022-07-28T01:00:44.390Z,9.40
2022-07-28T01:01:55.551Z,14.00
2022-07-28T01:03:11.760Z,7.70
2022-07-28T01:04:20.483Z,9.80
2022-07-28T01:05:43.571Z,7.90
2022-07-28T01:07:18.735Z,13.80
2022-07-28T01:08:49.456Z,9.90
2022-07-28T01:10:29.541Z,10.70
2022-07-28T01:11:58.091Z,8.70
2022-07-28T01:13:17.043Z,9.60
2022-07-28T01:14:50.434Z,10.20
2022-07-28T01:16:05.013Z,13.40
2022-07-28T01:17:49.256Z,10.90
2022-07-28T01:19:13.348Z,9.70
2022-07-28T01:20:53.253Z,8.90
2022-07-28T01:22:01.133Z,13.00
2022-07-28T01:23:23.238Z,8.70
2022-07-28T01:25:03.512Z,7.30
2022-07-28T01:26:29.847Z,10.70
2022-07-28T01:27:53.380Z,10.20
2022-07-28T01:29:38.985Z,12.40
2022-07-28T01:30:51.898Z,14.20
2022-07-28T01:32:29.420Z,8.50
2022-07-28T01:34:06.250Z,12.20
2022-07-28T01:35:27.895Z,10.80
2022-07-28T01:36:45.724Z,9.60
2022-07-28T01:37:57.763Z,8.00
2022-07-28T01:39:06.805Z,9.90
2022-07-28T01:40:17.980Z,13.50
2022-07-28T01:41:30.203Z,7.90
2022-07-28T01:42:42.440Z,11.00
2022-07-28T01:43:59.718Z,9.60
2022-07-28T01:45:11.538Z,8.00
2022-07-28T01:46:20.032Z,12.10
2022-07-28T01:47:27.944Z,9.80
2022-07-28T01:48:36.626Z,10.30
2022-07-28T01:49:47.794Z,9.60
2022-07-28T01:50:58.015Z,8.00
2022-07-28T01:52:08.679Z,10.30
2022-07-28T01:53:20.949Z,10.30
2022-07-28T01:54:30.057Z,9.40
2022-07-28T01:55:41.556Z,10.80
2022-07-28T01:56:51.851Z,12.00
2022-07-28T01:58:00.324Z,12.60
2022-07-28T01:59:13.581Z,11.70
2022-07-28T02:00:23.780Z,9.50
2022-07-28T02:01:34.786Z,10.20
2022-07-28T02:02:46.570Z,10.10
2022-07-28T02:03:56.688Z,9.60
2022-07-28T02:05:07.495Z,10.40
2022-07-28T02:06:16.108Z,9.60
2022-07-28T02:07:24.864Z,11.70
2022-07-28T02:08:34.296Z,11.60
2022-07-28T02:09:43.097Z,9.80
2022-07-28T02:11:11.748Z,12.20
2022-07-28T02:12:20.856Z,8.80
2022-07-28T02:13:31.959Z,10.30
2022-07-28T02:14:40.890Z,10.50
2022-07-28T02:15:50.239Z,10.90
2022-07-28T02:17:09.525Z,11.60
2022-07-28T02:18:18.011Z,12.20
2022-07-28T02:19:26.409Z,9.30
2022-07-28T02:20:35.152Z,9.70
2022-07-28T02:21:49.837Z,10.60
2022-07-28T02:22:59.106Z,11.60
2022-07-28T02:24:08.362Z,8.30
2022-07-28T02:25:18.723Z,8.90
2022-07-28T02:26:30.674Z,8.70
2022-07-28T02:28:02.479Z,11.00
2022-07-28T02:29:27.423Z,10.10
2022-07-28T02:30:49.759Z,11.40
2022-07-28T02:32:06.411Z,9.80
2022-07-28T02:33:58.881Z,10.20
2022-07-28T02:35:32.072Z,9.00
2022-07-28T02:36:52.211Z,9.50
2022-07-28T02:38:03.689Z,10.30
2022-07-28T02:39:19.691Z,12.10
2022-07-28T02:40:28.473Z,12.90
2022-07-28T02:41:40.854Z,8.80
2022-07-28T02:42:50.228Z,11.20
2022-07-28T02:44:03.009Z,12.00
2022-07-28T02:45:14.619Z,10.40
2022-07-28T02:46:41.031Z,9.60
2022-07-28T02:47:55.620Z,10.80
2022-07-28T02:49:09.495Z,10.70
2022-07-28T02:50:19.189Z,11.50
2022-07-28T02:51:29.472Z,10.30
2022-07-28T02:52:38.215Z,10.70
2022-07-28T02:53:47.044Z,13.20
2022-07-28T02:54:56.438Z,14.90
2022-07-28T02:56:05.127Z,11.90
2022-07-28T02:57:15.012Z,8.80
2022-07-28T02:58:26.351Z,10.40
2022-07-28T02:59:36.884Z,10.60
2022-07-28T03:00:46.174Z,9.30
2022-07-28T03:01:57.250Z,10.80
2022-07-28T03:03:06.803Z,11.50
2022-07-28T03:04:16.175Z,14.50
2022-07-28T03:05:24.888Z,8.20
2022-07-28T03:06:33.913Z,7.70
2022-07-28T03:07:51.188Z,18.20
2022-07-28T03:09:02.252Z,14.40
2022-07-28T03:10:11.137Z,18.00
2022-07-28T03:11:22.193Z,8.30
2022-07-28T03:12:30.474Z,11.50
2022-07-28T03:13:40.700Z,13.30
2022-07-28T03:14:51.798Z,10.10
2022-07-28T03:16:02.619Z,11.60
2022-07-28T03:17:11.113Z,13.10
2022-07-28T03:18:19.688Z,11.10
2022-07-28T03:19:28.593Z,13.70
2022-07-28T03:20:37.181Z,10.80
2022-07-28T03:21:47.997Z,13.70
2022-07-28T03:23:00.371Z,13.30
2022-07-28T03:24:08.791Z,10.30
2022-07-28T03:25:24.346Z,8.70
2022-07-28T03:26:48.063Z,8.50
2022-07-28T03:27:56.325Z,8.80
2022-07-28T03:29:07.233Z,8.50
2022-07-28T03:30:22.518Z,14.10
2022-07-28T03:31:31.063Z,9.00
2022-07-28T03:32:40.753Z,11.90
2022-07-28T03:33:49.170Z,12.00
2022-07-28T03:34:59.705Z,14.50
2022-07-28T03:36:16.130Z,10.60
2022-07-28T03:37:40.531Z,11.90
2022-07-28T03:38:59.406Z,20.70
2022-07-28T03:40:08.269Z,13.50
2022-07-28T03:41:18.086Z,8.90
2022-07-28T03:42:26.417Z,11.20
2022-07-28T03:43:35.908Z,11.20
2022-07-28T03:44:44.647Z,12.60
2022-07-28T03:45:55.983Z,13.00
2022-07-28T03:47:05.842Z,12.70
2022-07-28T03:48:14.253Z,12.10
2022-07-28T03:49:26.911Z,11.50
2022-07-28T03:50:36.710Z,11.20
2022-07-28T03:51:46.784Z,10.90
2022-07-28T03:52:55.326Z,10.30
2022-07-28T03:54:05.282Z,11.90
2022-07-28T03:55:16.287Z,9.60
2022-07-28T03:56:25.504Z,9.00
2022-07-28T03:57:33.365Z,10.60
2022-07-28T03:58:42.142Z,10.20
2022-07-28T03:59:51.108Z,10.70
2022-07-28T04:01:02.158Z,9.10
2022-07-28T04:02:10.871Z,11.70
2022-07-28T04:03:35.195Z,14.30
2022-07-28T04:04:53.641Z,9.70
2022-07-28T04:06:04.592Z,10.20
2022-07-28T04:07:12.655Z,9.80
2022-07-28T04:08:21.548Z,10.60
2022-07-28T04:09:34.344Z,10.30
2022-07-28T04:10:42.959Z,10.00
2022-07-28T04:11:51.929Z,12.10
2022-07-28T04:13:01.039Z,12.50
2022-07-28T04:14:13.192Z,9.60
2022-07-28T04:15:27.020Z,11.30
2022-07-28T04:16:35.674Z,13.70
2022-07-28T04:17:47.545Z,12.80
2022-07-28T04:18:57.088Z,12.00
2022-07-28T04:20:05.378Z,9.10
2022-07-28T04:21:16.449Z,11.40
2022-07-28T04:22:25.788Z,10.40
2022-07-28T04:23:36.049Z,10.20
2022-07-28T04:24:45.865Z,10.60
2022-07-28T04:25:55.148Z,10.60
2022-07-28T04:27:05.994Z,14.40
2022-07-28T04:28:14.818Z,9.60
2022-07-28T04:29:27.181Z,10.50
2022-07-28T04:30:43.711Z,8.70
2022-07-28T04:31:52.982Z,11.20
2022-07-28T04:33:01.737Z,12.70
2022-07-28T04:34:09.691Z,11.50
2022-07-28T04:35:19.673Z,9.40
2022-07-28T04:36:28.968Z,10.10
2022-07-28T04:37:42.244Z,8.80
2022-07-28T04:38:51.137Z,10.10
2022-07-28T04:40:01.227Z,9.20
2022-07-28T04:41:10.341Z,12.30
2022-07-28T04:42:20.215Z,9.40
2022-07-28T04:43:29.412Z,9.50
2022-07-28T04:44:41.212Z,11.60
2022-07-28T04:45:55.879Z,10.30
2022-07-28T04:47:06.447Z,11.40
2022-07-28T04:48:15.290Z,8.50
2022-07-28T04:49:26.901Z,10.00
2022-07-28T04:50:36.616Z,9.50
2022-07-28T04:51:51.018Z,9.30
2022-07-28T04:53:02.002Z,7.80
2022-07-28T04:54:09.836Z,10.80
2022-07-28T04:55:19.710Z,9.70
2022-07-28T04:56:29.205Z,13.60
2022-07-28T04:57:39.285Z,9.70
2022-07-28T04:58:48.690Z,10.20
2022-07-28T04:59:57.097Z,7.80
2022-07-28T05:01:07.581Z,10.50
2022-07-28T05:02:16.224Z,9.70
2022-07-28T05:03:25.607Z,11.20
2022-07-28T05:04:33.704Z,8.40
2022-07-28T05:05:44.249Z,10.90
2022-07-28T05:06:59.143Z,10.20
2022-07-28T05:08:07.382Z,8.70
2022-07-28T05:09:16.444Z,8.60
2022-07-28T05:10:26.917Z,9.80
2022-07-28T05:11:36.134Z,8.20
2022-07-28T05:12:49.245Z,7.30
2022-07-28T05:13:59.314Z,8.60
2022-07-28T05:15:10.043Z,12.20
2022-07-28T05:16:18.298Z,9.50
2022-07-28T05:17:27.582Z,8.70
2022-07-28T05:18:35.926Z,10.30
2022-07-28T05:19:46.229Z,8.30
2022-07-28T05:20:56.513Z,7.80
2022-07-28T05:22:05.981Z,10.70
2022-07-28T05:23:16.960Z,10.00
2022-07-28T05:24:25.181Z,8.20
2022-07-28T05:25:35.686Z,8.70
2022-07-28T05:26:46.483Z,9.30
2022-07-28T05:27:56.504Z,9.10
2022-07-28T05:29:06.528Z,11.80
2022-07-28T05:30:15.632Z,9.50
2022-07-28T05:31:26.899Z,11.30
2022-07-28T05:32:35.561Z,10.10
2022-07-28T05:33:45.953Z,10.40
2022-07-28T05:34:57.492Z,10.00
2022-07-28T05:36:07.430Z,12.10
2022-07-28T05:37:16.834Z,7.90
2022-07-28T05:38:26.641Z,13.70
2022-07-28T05:39:36.630Z,9.60
2022-07-28T05:40:45.233Z,11.20
2022-07-28T05:41:56.478Z,8.80
2022-07-28T05:43:06.665Z,10.30
2022-07-28T05:44:14.837Z,8.20
2022-07-28T05:45:23.042Z,9.80
2022-07-28T05:46:31.485Z,9.40
2022-07-28T05:47:47.094Z,9.00
2022-07-28T05:48:55.290Z,12.70
2022-07-28T05:50:03.927Z,11.40
2022-07-28T05:51:14.706Z,10.70
2022-07-28T05:52:22.777Z,11.90
2022-07-28T05:53:31.236Z,10.40
2022-07-28T05:54:39.967Z,11.90
2022-07-28T05:56:00.270Z,12.10
2022-07-28T05:57:15.423Z,10.90
2022-07-28T05:58:26.293Z,10.30
2022-07-28T05:59:35.390Z,13.30
2022-07-28T06:00:46.674Z,14.00
2022-07-28T06:02:03.436Z,18.40
2022-07-28T06:03:11.747Z,11.00
2022-07-28T06:04:28.402Z,16.90
2022-07-28T06:06:00.704Z,9.70
2022-07-28T06:07:09.572Z,12.50
2022-07-28T06:08:17.736Z,14.10
2022-07-28T06:09:27.288Z,15.60
2022-07-28T06:10:54.819Z,11.80
2022-07-28T06:12:06.524Z,12.10
2022-07-28T06:13:14.827Z,14.90
2022-07-28T06:14:23.012Z,13.50
2022-07-28T06:15:33.464Z,12.00
2022-07-28T06:16:42.267Z,11.30
2022-07-28T06:17:54.266Z,16.20
2022-07-28T06:19:02.994Z,11.70
2022-07-28T06:20:11.907Z,10.90
2022-07-28T06:21:19.727Z,14.40
2022-07-28T06:22:27.704Z,12.60
2022-07-28T06:23:35.493Z,15.20
2022-07-28T06:24:47.439Z,18.20
2022-07-28T06:25:58.993Z,16.00
2022-07-28T06:27:09.117Z,11.40
2022-07-28T06:28:17.528Z,12.10
2022-07-28T06:29:27.991Z,13.60
2022-07-28T06:30:36.655Z,13.60
2022-07-28T06:31:45.405Z,10.00
2022-07-28T06:32:55.384Z,15.60
2022-07-28T06:34:06.483Z,12.10
2022-07-28T06:35:17.996Z,10.90
2022-07-28T06:36:26.533Z,8.90
2022-07-28T06:37:36.689Z,12.00
2022-07-28T06:38:46.759Z,13.20
2022-07-28T06:39:56.797Z,18.60
2022-07-28T06:41:05.462Z,14.10
2022-07-28T06:42:13.629Z,10.30
2022-07-28T06:43:21.841Z,13.50
2022-07-28T06:44:48.280Z,13.00
2022-07-28T06:45:59.845Z,13.10
2022-07-28T06:47:08.393Z,12.20
2022-07-28T06:48:19.734Z,10.90
2022-07-28T06:49:30.691Z,15.30
2022-07-28T06:50:40.816Z,9.00
2022-07-28T06:51:48.757Z,11.60
2022-07-28T06:53:00.377Z,13.00
2022-07-28T06:54:11.374Z,9.90
2022-07-28T06:55:19.978Z,14.20
2022-07-28T06:56:28.454Z,11.60
2022-07-28T06:57:37.940Z,10.50
2022-07-28T06:58:47.978Z,9.40
2022-07-28T07:00:00.678Z,11.80
2022-07-28T07:01:10.920Z,15.80
2022-07-28T07:02:19.303Z,11.80
2022-07-28T07:03:28.873Z,13.40
2022-07-28T07:04:39.261Z,9.60
2022-07-28T07:05:51.635Z,13.00
2022-07-28T07:07:03.840Z,12.50
2022-07-28T07:08:24.594Z,12.20
2022-07-28T07:09:35.969Z,13.40
2022-07-28T07:10:47.428Z,12.40
2022-07-28T07:11:56.982Z,12.50
2022-07-28T07:13:09.792Z,13.10
2022-07-28T07:14:24.644Z,11.40
2022-07-28T07:15:35.665Z,13.10
2022-07-28T07:16:46.276Z,11.60
2022-07-28T07:17:55.974Z,11.00
2022-07-28T07:19:07.226Z,13.00
2022-07-28T07:20:18.623Z,10.60
2022-07-28T07:21:27.194Z,13.80
2022-07-28T07:22:35.739Z,14.30
2022-07-28T07:23:45.338Z,15.20
2022-07-28T07:24:57.715Z,11.70
2022-07-28T07:26:06.611Z,11.50
2022-07-28T07:27:16.858Z,14.70
2022-07-28T07:28:25.000Z,17.50
2022-07-28T07:29:35.074Z,15.50
2022-07-28T07:30:43.076Z,13.90
2022-07-28T07:31:54.005Z,16.90
2022-07-28T07:33:02.829Z,13.00
2022-07-28T07:34:17.926Z,12.70
2022-07-28T07:35:28.427Z,13.40
2022-07-28T07:36:37.313Z,15.90
2022-07-28T07:37:46.010Z,14.60
2022-07-28T07:38:54.529Z,16.10
2022-07-28T07:40:06.022Z,14.30
2022-07-28T07:41:16.423Z,13.80
2022-07-28T07:42:25.377Z,12.10
2022-07-28T07:43:37.592Z,12.50
2022-07-28T07:44:50.240Z,14.50
2022-07-28T07:45:59.075Z,13.00
2022-07-28T07:47:12.634Z,14.40
2022-07-28T07:48:22.091Z,17.10
2022-07-28T07:49:45.707Z,16.40
2022-07-28T07:50:57.351Z,13.10
2022-07-28T07:52:06.619Z,14.90
2022-07-28T07:53:17.624Z,14.30
2022-07-28T07:54:26.413Z,12.80
2022-07-28T07:55:40.346Z,15.90
2022-07-28T07:56:49.701Z,11.20
2022-07-28T07:58:00.008Z,12.80
2022-07-28T07:59:09.921Z,13.70
2022-07-28T08:00:27.988Z,12.10
2022-07-28T08:01:40.306Z,11.50
2022-07-28T08:02:49.377Z,12.30
2022-07-28T08:04:03.676Z,13.90
2022-07-28T08:05:18.833Z,14.40
2022-07-28T08:06:27.357Z,14.10
2022-07-28T08:07:37.645Z,15.20
2022-07-28T08:08:48.627Z,14.00
2022-07-28T08:09:57.392Z,14.00
2022-07-28T08:11:07.264Z,13.60
2022-07-28T08:12:16.513Z,11.80
2022-07-28T08:13:25.454Z,14.00
2022-07-28T08:14:33.810Z,16.60
2022-07-28T08:15:42.524Z,10.40
2022-07-28T08:16:53.933Z,12.90
2022-07-28T08:18:03.291Z,13.20
2022-07-28T08:19:11.661Z,13.60
2022-07-28T08:20:20.182Z,12.00
2022-07-28T08:21:32.925Z,12.60
2022-07-28T08:22:54.027Z,11.30
2022-07-28T08:24:05.610Z,9.30
2022-07-28T08:25:16.220Z,12.80
2022-07-28T08:26:24.866Z,13.00
2022-07-28T08:27:34.757Z,10.20
2022-07-28T08:28:42.785Z,11.90
2022-07-28T08:29:53.517Z,9.30
2022-07-28T08:31:01.814Z,10.80
2022-07-28T08:32:12.594Z,11.20
2022-07-28T08:33:23.383Z,10.50
2022-07-28T08:34:33.578Z,9.90
2022-07-28T08:35:43.122Z,10.40
2022-07-28T08:36:55.323Z,13.40
2022-07-28T08:38:05.964Z,10.00
2022-07-28T08:39:17.046Z,11.70
2022-07-28T08:40:27.608Z,13.80
2022-07-28T08:42:03.743Z,13.80
2022-07-28T08:43:27.195Z,15.00
2022-07-28T08:45:01.824Z,10.70
2022-07-28T08:46:12.907Z,11.10
2022-07-28T08:47:21.908Z,11.50
2022-07-28T08:48:38.251Z,12.40
2022-07-28T08:49:48.314Z,13.60
2022-07-28T08:50:58.936Z,12.70
2022-07-28T08:52:08.425Z,11.80
2022-07-28T08:53:17.672Z,13.20
2022-07-28T08:54:27.519Z,12.70
2022-07-28T08:55:37.106Z,14.20
2022-07-28T08:56:47.750Z,12.30
2022-07-28T08:57:59.707Z,12.70
2022-07-28T08:59:10.884Z,13.10
2022-07-28T09:00:19.315Z,13.10
2022-07-28T09:01:39.281Z,12.90
2022-07-28T09:02:52.172Z,11.10
2022-07-28T09:04:05.948Z,14.60
2022-07-28T09:05:18.257Z,10.40
2022-07-28T09:06:26.572Z,10.30
2022-07-28T09:07:40.800Z,12.10
2022-07-28T09:08:49.857Z,13.70
2022-07-28T09:10:02.429Z,13.20
2022-07-28T09:11:14.167Z,12.20
2022-07-28T09:12:26.777Z,13.20
2022-07-28T09:13:38.459Z,12.70
2022-07-28T09:14:48.916Z,12.60
2022-07-28T09:15:58.618Z,10.30
2022-07-28T09:17:08.435Z,12.80
2022-07-28T09:18:17.203Z,11.80
2022-07-28T09:19:26.318Z,12.10
2022-07-28T09:20:43.169Z,14.60
2022-07-28T09:21:52.136Z,12.00
2022-07-28T09:23:04.323Z,14.70
2022-07-28T09:24:24.813Z,11.70
2022-07-28T09:25:33.423Z,13.40
2022-07-28T09:27:02.927Z,14.00
2022-07-28T09:28:17.992Z,11.30
2022-07-28T09:29:30.584Z,14.80
2022-07-28T09:30:47.300Z,13.60
2022-07-28T09:32:06.663Z,15.60
2022-07-28T09:33:42.148Z,12.50
2022-07-28T09:34:52.271Z,12.00
2022-07-28T09:36:02.251Z,14.90
2022-07-28T09:37:27.478Z,16.70
2022-07-28T09:38:43.597Z,12.30
2022-07-28T09:39:54.802Z,12.20
2022-07-28T09:41:03.808Z,14.50
2022-07-28T09:42:14.528Z,10.80
2022-07-28T09:43:34.608Z,15.20
2022-07-28T09:45:00.029Z,12.50
2022-07-28T09:46:17.103Z,15.50
2022-07-28T09:47:34.794Z,13.20
2022-07-28T09:48:55.910Z,15.30
2022-07-28T09:50:06.693Z,12.90
2022-07-28T09:51:16.289Z,14.40
2022-07-28T09:52:40.109Z,12.50
2022-07-28T09:53:48.896Z,15.60
2022-07-28T09:55:11.589Z,13.50
2022-07-28T09:56:20.287Z,10.20
2022-07-28T09:57:33.480Z,16.00
2022-07-28T09:58:55.895Z,11.90
2022-07-28T10:00:13.974Z,13.20
2022-07-28T10:01:24.669Z,11.70
2022-07-28T10:02:33.474Z,13.60
2022-07-28T10:03:47.079Z,13.30
2022-07-28T10:04:57.704Z,13.70
2022-07-28T10:06:09.942Z,11.70
2022-07-28T10:07:19.787Z,13.70
2022-07-28T10:08:49.058Z,13.40
2022-07-28T10:10:11.196Z,11.60
2022-07-28T10:11:30.777Z,12.60
2022-07-28T10:12:42.274Z,14.70
2022-07-28T10:13:57.090Z,12.80
2022-07-28T10:15:38.651Z,16.90
2022-07-28T10:17:06.224Z,12.50
2022-07-28T10:18:17.964Z,13.00
2022-07-28T10:19:29.298Z,13.80
2022-07-28T10:20:38.506Z,12.90
2022-07-28T10:21:48.879Z,12.40
2022-07-28T10:23:06.875Z,12.30
2022-07-28T10:24:24.314Z,10.90
2022-07-28T10:25:36.356Z,12.70
2022-07-28T10:26:49.033Z,14.80
2022-07-28T10:27:58.438Z,13.40
2022-07-28T10:29:10.468Z,10.40
2022-07-28T10:30:18.976Z,13.10
2022-07-28T10:31:37.873Z,10.80
2022-07-28T10:32:48.994Z,12.20
2022-07-28T10:33:59.191Z,13.70
2022-07-28T10:35:08.149Z,10.90
2022-07-28T10:36:20.108Z,10.90
2022-07-28T10:37:29.761Z,14.00
2022-07-28T10:38:38.665Z,12.20
2022-07-28T10:40:11.742Z,11.80
2022-07-28T10:41:20.228Z,11.90
2022-07-28T10:42:28.683Z,11.80
2022-07-28T10:43:42.723Z,12.50
2022-07-28T10:44:55.607Z,13.00
2022-07-28T10:46:11.855Z,10.70
2022-07-28T10:47:25.697Z,12.10
2022-07-28T10:48:45.594Z,12.20
2022-07-28T10:49:56.562Z,14.00
2022-07-28T10:51:05.900Z,11.30
2022-07-28T10:52:45.900Z,14.70
2022-07-28T10:53:59.034Z,15.60
2022-07-28T10:55:34.355Z,11.90
2022-07-28T10:57:06.530Z,11.20
2022-07-28T10:58:36.200Z,12.90
2022-07-28T11:00:13.265Z,13.20
2022-07-28T11:01:50.339Z,15.20
2022-07-28T11:03:13.320Z,14.10
2022-07-28T11:04:46.849Z,13.40
2022-07-28T11:05:58.008Z,16.70
2022-07-28T11:07:15.619Z,14.40
2022-07-28T11:08:23.574Z,13.90
2022-07-28T11:09:31.700Z,12.10
2022-07-28T11:11:00.707Z,15.20
2022-07-28T11:12:17.591Z,13.00
2022-07-28T11:13:33.839Z,13.50
2022-07-28T11:14:42.134Z,11.20
2022-07-28T11:15:54.198Z,16.30
2022-07-28T11:17:11.164Z,13.70
2022-07-28T11:18:21.226Z,15.20
2022-07-28T11:19:36.813Z,13.40
2022-07-28T11:21:00.490Z,14.10
2022-07-28T11:22:21.187Z,13.10
2022-07-28T11:23:50.499Z,12.90
2022-07-28T11:25:19.944Z,13.00
2022-07-28T11:26:37.189Z,13.50
2022-07-28T11:28:02.448Z,14.60
2022-07-28T11:29:17.090Z,17.70
2022-07-28T11:30:30.646Z,13.60
2022-07-28T11:31:49.007Z,17.20
2022-07-28T11:32:57.863Z,16.30
2022-07-28T11:34:10.426Z,12.70
2022-07-28T11:35:20.394Z,15.80
2022-07-28T11:36:59.359Z,14.90
2022-07-28T11:38:11.178Z,16.50
2022-07-28T11:39:30.404Z,20.20
2022-07-28T11:40:57.985Z,20.40
2022-07-28T11:42:35.271Z,16.50
2022-07-28T11:43:49.211Z,17.00
2022-07-28T11:44:58.495Z,14.30
2022-07-28T11:46:13.776Z,14.00
2022-07-28T11:47:31.442Z,12.90
2022-07-28T11:48:48.868Z,11.80
2022-07-28T11:50:26.243Z,14.60
2022-07-28T11:51:52.427Z,15.00
2022-07-28T11:53:04.325Z,14.70
2022-07-28T11:54:19.495Z,15.90
2022-07-28T11:55:49.398Z,15.60
2022-07-28T11:57:00.744Z,12.40
2022-07-28T11:58:09.772Z,16.80
2022-07-28T11:59:20.734Z,12.60
2022-07-28T12:00:29.129Z,17.20
2022-07-28T12:01:38.938Z,17.50
2022-07-28T12:02:48.929Z,14.40
2022-07-28T12:04:00.910Z,14.00
2022-07-28T12:05:14.483Z,15.20
2022-07-28T12:06:29.050Z,14.10
2022-07-28T12:07:43.676Z,14.70
2022-07-28T12:08:58.315Z,16.50
2022-07-28T12:12:10.705Z,14.70
2022-07-28T12:13:18.847Z,14.20
2022-07-28T12:14:30.621Z,14.40
2022-07-28T12:15:39.041Z,16.40
2022-07-28T12:16:51.901Z,17.40
2022-07-28T12:18:01.336Z,17.00
2022-07-28T12:19:12.029Z,16.10
2022-07-28T12:20:20.739Z,13.70
2022-07-28T12:21:47.511Z,16.70
2022-07-28T12:23:01.817Z,13.90
2022-07-28T12:24:12.092Z,16.20
2022-07-28T12:25:21.143Z,12.90
2022-07-28T12:26:41.241Z,16.20
2022-07-28T12:27:50.321Z,16.00
2022-07-28T12:29:02.063Z,16.30
2022-07-28T12:30:23.965Z,19.10
2022-07-28T12:31:35.556Z,13.20
2022-07-28T12:32:45.424Z,16.30
2022-07-28T12:33:56.292Z,16.10
2022-07-28T12:35:06.966Z,16.20
2022-07-28T12:36:16.337Z,17.20
2022-07-28T12:37:25.254Z,21.40
2022-07-28T12:38:33.071Z,17.80
2022-07-28T12:39:43.596Z,17.70
2022-07-28T12:40:55.434Z,16.30
2022-07-28T12:42:10.816Z,14.70
2022-07-28T12:43:29.458Z,13.50
2022-07-28T12:44:41.428Z,16.10
2022-07-28T12:45:51.079Z,17.90
2022-07-28T12:47:01.602Z,17.70
2022-07-28T12:48:11.760Z,16.10
2022-07-28T12:49:27.817Z,16.30
2022-07-28T12:50:42.332Z,12.50
2022-07-28T12:51:51.385Z,14.80
2022-07-28T12:53:11.233Z,17.40
2022-07-28T12:54:19.136Z,21.90
2022-07-28T12:55:32.258Z,14.70
2022-07-28T12:56:53.835Z,15.90
2022-07-28T12:58:01.925Z,15.30
2022-07-28T12:59:15.568Z,13.50
2022-07-28T13:00:30.688Z,13.80
2022-07-28T13:01:53.297Z,14.90
2022-07-28T13:03:03.986Z,15.20
2022-07-28T13:04:15.016Z,13.00
2022-07-28T13:05:58.837Z,22.30
2022-07-28T13:07:11.613Z,14.90
2022-07-28T13:08:19.390Z,18.20
2022-07-28T13:09:32.823Z,16.00
2022-07-28T13:10:56.691Z,19.10
2022-07-28T13:12:08.395Z,15.70
2022-07-28T13:13:22.028Z,19.50
2022-07-28T13:14:49.392Z,19.00
2022-07-28T13:16:18.415Z,20.70
2022-07-28T13:17:27.909Z,17.70
2022-07-28T13:18:46.256Z,14.50
2022-07-28T13:20:12.061Z,17.30
2022-07-28T13:21:40.438Z,18.90
2022-07-28T13:23:09.544Z,18.10
2022-07-28T13:24:21.320Z,18.10
2022-07-28T13:25:31.843Z,13.20
2022-07-28T13:26:44.282Z,22.10
2022-07-28T13:27:55.783Z,14.00
2022-07-28T13:29:12.866Z,13.40
2022-07-28T13:30:23.254Z,16.60
2022-07-28T13:31:33.997Z,14.00
2022-07-28T13:32:42.692Z,16.90
2022-07-28T13:33:51.733Z,14.80
2022-07-28T13:35:01.991Z,14.40
2022-07-28T13:36:11.593Z,18.00
2022-07-28T13:37:21.642Z,15.90
2022-07-28T13:38:29.983Z,13.60
2022-07-28T13:39:40.317Z,17.20
2022-07-28T13:40:49.783Z,14.80
2022-07-28T13:41:59.264Z,15.50
2022-07-28T13:43:11.230Z,19.00
2022-07-28T13:44:20.847Z,15.30
2022-07-28T13:45:30.248Z,17.70
2022-07-28T13:46:47.106Z,17.00
2022-07-28T13:48:00.093Z,18.90
2022-07-28T13:49:08.366Z,15.60
2022-07-28T13:50:19.552Z,16.70
2022-07-28T13:51:29.441Z,14.10
2022-07-28T13:52:44.346Z,16.40
2022-07-28T13:53:53.616Z,18.50
2022-07-28T13:55:07.509Z,17.10
2022-07-28T13:56:19.473Z,15.60
2022-07-28T13:57:29.016Z,21.90
2022-07-28T13:58:37.762Z,18.10
2022-07-28T13:59:47.514Z,18.70
2022-07-28T14:00:59.213Z,19.60
2022-07-28T14:02:15.207Z,19.00
2022-07-28T14:03:24.846Z,15.70
2022-07-28T14:04:37.294Z,27.30
2022-07-28T14:05:49.922Z,16.20
2022-07-28T14:06:59.930Z,14.80
2022-07-28T14:08:10.643Z,15.30
2022-07-28T14:09:21.191Z,12.60
2022-07-28T14:10:30.685Z,14.90
2022-07-28T14:11:39.105Z,18.60
2022-07-28T14:12:48.527Z,14.60
2022-07-28T14:13:58.337Z,14.80
2022-07-28T14:15:09.497Z,17.70
2022-07-28T14:16:19.555Z,13.10
2022-07-28T14:17:45.924Z,15.30
2022-07-28T14:18:58.412Z,13.80
2022-07-28T14:20:09.117Z,15.10
2022-07-28T14:21:17.963Z,13.60
2022-07-28T14:22:26.064Z,18.40
2022-07-28T14:23:36.020Z,12.30
2022-07-28T14:24:45.361Z,15.00
2022-07-28T14:26:18.371Z,15.40
2022-07-28T14:27:29.205Z,15.40
2022-07-28T14:28:38.114Z,21.50
2022-07-28T14:29:48.830Z,15.30
2022-07-28T14:30:58.816Z,17.10
2022-07-28T14:32:09.795Z,16.60
2022-07-28T14:33:19.292Z,22.70
2022-07-28T14:34:28.061Z,17.50
2022-07-28T14:35:37.709Z,19.40
2022-07-28T14:36:47.225Z,17.60
2022-07-28T14:39:28.871Z,17.90
2022-07-28T14:40:39.502Z,20.40
2022-07-28T14:41:52.087Z,17.10
2022-07-28T14:43:02.720Z,15.80
2022-07-28T14:44:16.524Z,20.80
2022-07-28T14:46:06.687Z,17.10
2022-07-28T14:47:11.437Z,16.50
2022-07-28T14:48:21.701Z,17.70
2022-07-28T14:49:30.801Z,13.50
2022-07-28T14:50:39.079Z,15.60
2022-07-28T14:51:51.089Z,18.60
2022-07-28T14:53:02.474Z,16.10
2022-07-28T14:54:11.216Z,15.90
2022-07-28T14:55:22.213Z,18.10
2022-07-28T14:56:30.457Z,16.50
2022-07-28T14:57:49.994Z,17.60
2022-07-28T14:59:07.230Z,16.30
2022-07-28T15:00:17.092Z,17.00
2022-07-28T15:01:28.459Z,17.70
2022-07-28T15:02:47.051Z,17.20
2022-07-28T15:03:58.800Z,24.40
2022-07-28T15:05:09.601Z,19.90
2022-07-28T15:06:20.085Z,16.20
2022-07-28T15:07:30.182Z,17.90
2022-07-28T15:08:38.691Z,21.40
2022-07-28T15:09:51.211Z,19.20
2022-07-28T15:11:00.455Z,19.10
2022-07-28T15:12:10.479Z,19.90
2022-07-28T15:13:20.259Z,13.60
2022-07-28T15:14:29.036Z,15.30
2022-07-28T15:15:41.591Z,15.40
2022-07-28T15:16:57.009Z,20.50
2022-07-28T15:18:07.314Z,16.10
2022-07-28T15:19:19.942Z,22.50
2022-07-28T15:20:28.496Z,18.30
2022-07-28T15:21:41.638Z,15.30
2022-07-28T15:22:50.530Z,20.60
2022-07-28T15:23:59.870Z,18.10
2022-07-28T15:25:09.730Z,24.50
2022-07-28T15:26:19.145Z,15.00
2022-07-28T15:27:33.833Z,19.60
2022-07-28T15:28:44.978Z,17.60
2022-07-28T15:29:55.194Z,18.80
2022-07-28T15:31:09.708Z,16.20
2022-07-28T15:32:18.223Z,17.50
2022-07-28T15:33:29.478Z,20.90
2022-07-28T15:34:37.581Z,17.80
2022-07-28T15:35:57.880Z,16.00
2022-07-28T15:37:08.993Z,21.70
2022-07-28T15:38:20.177Z,19.90
2022-07-28T15:39:31.020Z,16.50
2022-07-28T15:40:43.796Z,14.90
2022-07-28T15:42:00.855Z,16.60
2022-07-28T15:43:12.071Z,18.90
2022-07-28T15:44:25.729Z,18.10
2022-07-28T15:45:38.269Z,20.30
2022-07-28T15:46:46.970Z,18.20
2022-07-28T15:47:58.869Z,16.00
2022-07-28T15:49:10.558Z,19.60